Time;durP1;ratioP1;P1;durP2;ratioP2;P2;SDS_P1;SDS_P2;PMS_P1;PMS_P2;Temp;Humidity;BMP_temperature;BMP_pressure;BME280_temperature;BME280_humidity;BME280_pressure;Samples;Min_cycle;Max_cycle;Signal;HPM_P1;HPM_P2
2022/12/03 00:01:48;;;;;;;68.22;17.77;;;8.60;92.20;;;;;;5126756;28;20032;-57
2022/12/03 00:04:13;;;;;;;57.38;16.40;;;8.50;91.90;;;;;;5126667;28;20031;-57
2022/12/03 00:06:39;;;;;;;51.20;17.38;;;8.50;91.90;;;;;;5108216;28;20038;-57
2022/12/03 00:09:04;;;;;;;57.85;16.80;;;8.50;91.90;;;;;;5091318;28;20096;-57
2022/12/03 00:11:30;;;;;;;59.13;15.73;;;8.50;91.90;;;;;;5107892;28;20031;-57
2022/12/03 00:13:56;;;;;;;62.85;17.13;;;8.50;91.90;;;;;;5126567;28;20046;-57
2022/12/03 00:16:21;;;;;;;54.78;16.80;;;8.50;92.00;;;;;;5107970;28;20362;-57
2022/12/03 00:18:47;;;;;;;48.17;17.45;;;8.50;91.90;;;;;;5126442;28;20453;-57
2022/12/03 00:21:12;;;;;;;42.20;16.55;;;8.40;91.90;;;;;;5107792;28;20035;-57
2022/12/03 00:23:38;;;;;;;57.88;17.48;;;8.40;91.90;;;;;;5107753;28;20035;-57
2022/12/03 00:26:03;;;;;;;57.20;17.45;;;8.40;92.00;;;;;;5125915;28;20083;-56
2022/12/03 00:28:29;;;;;;;54.42;16.83;;;8.40;92.00;;;;;;5126241;28;20020;-57
2022/12/03 00:30:54;;;;;;;49.70;16.80;;;8.40;92.00;;;;;;5126137;28;20032;-56
2022/12/03 00:33:20;;;;;;;57.45;17.23;;;8.40;92.00;;;;;;5126024;28;20020;-57
2022/12/03 00:35:46;;;;;;;52.65;17.20;;;8.40;92.00;;;;;;5107626;28;20031;-57
2022/12/03 00:38:11;;;;;;;54.70;15.98;;;8.40;92.00;;;;;;5107695;28;20049;-56
2022/12/03 00:40:37;;;;;;;41.10;16.05;;;8.40;92.00;;;;;;5107552;28;20038;-56
2022/12/03 00:43:02;;;;;;;60.17;18.08;;;8.40;92.00;;;;;;5107396;28;20049;-57
2022/12/03 00:45:28;;;;;;;49.67;17.55;;;8.40;92.00;;;;;;5107356;28;20088;-57
2022/12/03 00:47:53;;;;;;;45.55;17.45;;;8.30;92.00;;;;;;5107567;28;20114;-57
2022/12/03 00:50:19;;;;;;;37.80;17.17;;;8.30;92.10;;;;;;5107526;28;20035;-57
2022/12/03 00:52:44;;;;;;;44.97;17.67;;;8.40;92.10;;;;;;5125764;28;20027;-56
2022/12/03 00:55:10;;;;;;;43.95;17.20;;;8.30;92.10;;;;;;5107340;28;20099;-56
2022/12/03 00:57:35;;;;;;;45.03;17.20;;;8.30;92.10;;;;;;5125655;28;20032;-57
2022/12/03 01:00:01;;;;;;;44.50;17.65;;;8.30;92.10;;;;;;5107088;28;20043;-56
2022/12/03 01:02:26;;;;;;;48.20;17.80;;;8.30;92.10;;;;;;5107337;28;20032;-57
2022/12/03 01:04:52;;;;;;;44.95;18.10;;;8.30;92.10;;;;;;5107261;28;20060;-56
2022/12/03 01:07:17;;;;;;;52.63;18.95;;;8.30;92.10;;;;;;5125316;28;20055;-56
2022/12/03 01:09:43;;;;;;;42.33;18.70;;;8.20;92.10;;;;;;5107084;28;20043;-57
2022/12/03 01:12:10;;;;;;;45.28;18.15;;;8.20;92.10;;;;;;5106990;28;20040;-57
2022/12/03 01:14:36;;;;;;;43.05;16.98;;;8.30;92.10;;;;;;5107505;28;20123;-56
2022/12/03 01:17:01;;;;;;;39.63;17.15;;;8.20;92.10;;;;;;5107146;28;20425;-57
2022/12/03 01:19:27;;;;;;;40.20;17.77;;;8.20;92.10;;;;;;5125394;28;20023;-57
2022/12/03 01:21:54;;;;;;;37.58;18.23;;;8.20;92.10;;;;;;5106916;28;20031;-56
2022/12/03 01:24:19;;;;;;;39.63;17.88;;;8.20;92.00;;;;;;5107068;28;20069;-57
2022/12/03 01:26:45;;;;;;;36.10;17.58;;;8.20;92.00;;;;;;5125399;28;20460;-57
2022/12/03 01:29:11;;;;;;;41.85;17.58;;;8.30;92.00;;;;;;5125536;28;20019;-56
2022/12/03 01:34:20;;;;;;;41.78;18.20;;;8.20;92.00;;;;;;5109742;28;20045;-57
2022/12/03 01:36:46;;;;;;;39.25;17.13;;;8.20;92.00;;;;;;5106712;28;20443;-57
2022/12/03 01:39:11;;;;;;;40.97;16.27;;;8.20;92.00;;;;;;5108587;28;20019;-57
2022/12/03 01:41:37;;;;;;;37.08;17.40;;;8.20;92.00;;;;;;5110546;28;20083;-56
2022/12/03 01:44:06;;;;;;;34.17;17.38;;;8.20;92.00;;;;;;5109496;28;20027;-57
2022/12/03 01:46:36;;;;;;;34.03;17.10;;;8.20;92.00;;;;;;5110293;28;20161;-57
2022/12/03 01:49:01;;;;;;;35.55;17.50;;;8.20;92.00;;;;;;5109921;28;20043;-56
2022/12/03 01:51:28;;;;;;;44.15;18.38;;;8.20;92.10;;;;;;5109897;28;20024;-56
2022/12/03 01:53:53;;;;;;;38.50;16.85;;;8.20;92.00;;;;;;5110272;28;20027;-56
2022/12/03 01:56:19;;;;;;;33.22;15.90;;;8.20;92.00;;;;;;5109499;28;20031;-57
2022/12/03 01:58:44;;;;;;;37.72;18.02;;;8.20;92.00;;;;;;5109474;28;20031;-57
2022/12/03 02:01:12;;;;;;;32.72;16.85;;;8.20;92.00;;;;;;5109030;28;20040;-56
2022/12/03 02:03:38;;;;;;;36.25;17.05;;;8.20;92.00;;;;;;5092205;28;20084;-56
2022/12/03 02:06:04;;;;;;;39.03;18.20;;;8.20;92.00;;;;;;5109291;28;20039;-57
2022/12/03 02:08:32;;;;;;;30.75;17.45;;;8.20;92.00;;;;;;5109150;28;20024;-57
2022/12/03 02:11:00;;;;;;;37.95;17.60;;;8.20;92.00;;;;;;5109141;28;20481;-57
2022/12/03 02:13:25;;;;;;;34.35;16.67;;;8.10;92.00;;;;;;5109143;28;20053;-57
2022/12/03 02:15:51;;;;;;;33.28;17.05;;;8.20;92.00;;;;;;5108869;28;20057;-57
2022/12/03 02:18:16;;;;;;;32.35;17.40;;;8.10;92.00;;;;;;5108960;28;20066;-57
2022/12/03 02:21:05;;;;;;;37.08;16.75;;;8.20;92.00;;;;;;5108872;28;20032;-57
2022/12/03 02:24:04;;;;;;;35.28;16.55;;;8.10;92.00;;;;;;5118879;28;20035;-57
2022/12/03 02:26:29;;;;;;;29.10;16.98;;;8.10;92.00;;;;;;5108856;28;20024;-56
2022/12/03 02:28:55;;;;;;;33.90;17.85;;;8.10;92.00;;;;;;5109167;28;20176;-57
2022/12/03 02:31:21;;;;;;;29.80;15.48;;;8.10;92.00;;;;;;5108864;28;20040;-57
2022/12/03 02:33:47;;;;;;;34.13;17.08;;;8.10;92.00;;;;;;5108793;28;20481;-57
2022/12/03 02:36:12;;;;;;;30.05;16.38;;;8.10;92.00;;;;;;5109133;28;20024;-57
2022/12/03 02:38:38;;;;;;;28.92;16.08;;;8.10;92.00;;;;;;5108844;28;20036;-57
2022/12/03 02:44:03;;;;;;;30.75;16.85;;;8.10;92.00;;;;;;5095754;28;20273;-56
2022/12/03 02:46:29;;;;;;;32.08;18.00;;;8.10;92.00;;;;;;5109834;28;20028;-57
2022/12/03 02:48:54;;;;;;;31.17;17.58;;;8.10;91.90;;;;;;5109876;28;20073;-57
2022/12/03 02:51:20;;;;;;;26.42;15.77;;;8.10;91.90;;;;;;5109377;28;20169;-56
2022/12/03 02:53:46;;;;;;;27.65;16.33;;;8.10;92.10;;;;;;5109723;28;20054;-57
2022/12/03 02:56:19;;;;;;;25.08;15.52;;;8.10;92.30;;;;;;5109651;28;20087;-56
2022/12/03 02:58:45;;;;;;;31.65;16.60;;;8.10;92.40;;;;;;5109676;28;20038;-57
2022/12/03 03:01:11;;;;;;;31.02;15.88;;;8.10;92.50;;;;;;5109432;28;20035;-57
2022/12/03 03:03:37;;;;;;;25.63;15.30;;;8.10;92.40;;;;;;5109411;28;20079;-57
2022/12/03 03:06:02;;;;;;;26.15;14.98;;;8.10;92.30;;;;;;5109516;28;20027;-55
2022/12/03 03:08:28;;;;;;;25.80;15.20;;;8.10;92.40;;;;;;5109286;28;20061;-55
2022/12/03 03:10:54;;;;;;;27.90;15.10;;;8.10;92.40;;;;;;5109179;28;20035;-55
2022/12/03 03:13:19;;;;;;;25.75;15.15;;;8.10;92.50;;;;;;5109337;28;20027;-55
2022/12/03 03:15:45;;;;;;;27.00;15.55;;;8.10;92.50;;;;;;5109132;28;20129;-55
2022/12/03 03:18:11;;;;;;;25.30;16.33;;;8.10;92.50;;;;;;5109237;28;20032;-55
2022/12/03 03:20:37;;;;;;;31.50;16.63;;;8.10;92.50;;;;;;5109153;28;20088;-55
2022/12/03 03:23:19;;;;;;;23.95;15.43;;;8.10;92.60;;;;;;5109099;28;20016;-55
2022/12/03 03:25:46;;;;;;;27.27;16.42;;;8.10;92.50;;;;;;5092094;28;20085;-55
2022/12/03 03:28:12;;;;;;;24.83;15.95;;;8.10;92.50;;;;;;5109315;28;20513;-55
2022/12/03 03:30:38;;;;;;;24.17;16.35;;;8.10;92.40;;;;;;5109029;28;20122;-55
2022/12/03 03:33:04;;;;;;;26.45;16.70;;;8.10;92.40;;;;;;5109027;28;20022;-55
2022/12/03 03:35:29;;;;;;;26.45;15.70;;;8.20;92.60;;;;;;5127136;28;20050;-54
2022/12/03 03:37:55;;;;;;;27.27;15.88;;;8.10;92.50;;;;;;5108868;28;20023;-55
2022/12/03 03:40:20;;;;;;;25.90;15.70;;;8.10;92.40;;;;;;5108606;28;20083;-55
2022/12/03 03:42:46;;;;;;;24.48;15.77;;;8.10;92.30;;;;;;5108607;28;20157;-55
2022/12/03 03:45:12;;;;;;;27.38;16.45;;;8.10;92.30;;;;;;5108825;28;20437;-55
2022/12/03 03:47:38;;;;;;;23.73;15.18;;;8.10;92.30;;;;;;5108578;28;20067;-55
2022/12/03 03:50:04;;;;;;;24.23;15.02;;;8.10;92.20;;;;;;5108516;28;20028;-55
2022/12/03 03:52:30;;;;;;;22.58;15.88;;;8.10;92.20;;;;;;5108441;28;20042;-55
2022/12/03 03:54:55;;;;;;;27.88;15.50;;;8.10;92.20;;;;;;5108422;28;20464;-55
2022/12/03 03:57:21;;;;;;;22.30;15.18;;;8.10;92.10;;;;;;5107932;28;20046;-55
2022/12/03 03:59:46;;;;;;;25.35;15.27;;;8.10;92.10;;;;;;5091388;28;20034;-55
2022/12/03 04:02:17;;;;;;;23.85;14.98;;;8.10;92.10;;;;;;5107424;28;20036;-55
2022/12/03 04:04:43;;;;;;;22.33;15.15;;;8.00;92.00;;;;;;5126680;28;20102;-55
2022/12/03 04:07:08;;;;;;;21.50;15.40;;;8.00;92.00;;;;;;5108250;28;20112;-55
2022/12/03 04:09:34;;;;;;;24.40;15.05;;;8.00;91.90;;;;;;5126341;28;20031;-55
2022/12/03 04:14:44;;;;;;;24.10;14.95;;;8.00;91.90;;;;;;5126301;28;20035;-55
2022/12/03 04:17:09;;;;;;;21.70;14.85;;;8.00;91.80;;;;;;5126456;28;20031;-54
2022/12/03 04:19:35;;;;;;;20.63;15.38;;;8.00;91.80;;;;;;5108037;28;20062;-55
2022/12/03 04:24:44;;;;;;;18.15;13.35;;;8.00;91.80;;;;;;5110708;28;20470;-54
2022/12/03 04:29:54;;;;;;;24.05;15.20;;;8.00;91.70;;;;;;5126138;28;20120;-55
2022/12/03 04:37:48;;;;;;;20.80;14.40;;;7.90;91.60;;;;;;5126059;28;20057;-55
2022/12/03 04:42:58;;;;;;;18.40;13.57;;;7.90;91.60;;;;;;5125846;28;20080;-55
2022/12/03 04:45:23;;;;;;;20.17;13.80;;;7.90;91.50;;;;;;5090500;28;20039;-55
2022/12/03 04:47:49;;;;;;;18.08;14.07;;;7.90;91.50;;;;;;5107376;28;20035;-55
2022/12/03 04:50:14;;;;;;;19.13;14.55;;;7.90;91.40;;;;;;5107431;28;20027;-55
2022/12/03 04:52:40;;;;;;;18.30;14.43;;;7.90;91.40;;;;;;5107317;28;20023;-55
2022/12/03 04:55:06;;;;;;;20.70;13.70;;;7.90;91.30;;;;;;5125682;28;20028;-55
2022/12/03 04:57:31;;;;;;;18.38;13.70;;;7.90;91.30;;;;;;5107251;28;20130;-55
2022/12/03 04:59:57;;;;;;;19.65;13.48;;;7.90;91.30;;;;;;5107200;28;20053;-54
2022/12/03 05:02:22;;;;;;;19.65;13.43;;;7.90;91.20;;;;;;5125752;28;20024;-55
2022/12/03 05:04:48;;;;;;;17.80;14.10;;;7.90;91.20;;;;;;5107346;28;20038;-55
2022/12/03 05:07:13;;;;;;;18.52;14.07;;;7.90;91.20;;;;;;5107129;28;20097;-54
2022/12/03 05:09:39;;;;;;;15.95;12.73;;;7.90;91.20;;;;;;5125600;28;20032;-54
2022/12/03 05:12:05;;;;;;;18.15;13.60;;;7.90;91.20;;;;;;5125470;28;20031;-54
2022/12/03 05:14:30;;;;;;;16.85;13.07;;;7.90;91.10;;;;;;5106752;28;20020;-55
2022/12/03 05:16:56;;;;;;;18.75;13.20;;;7.90;91.10;;;;;;5107136;28;20045;-55
2022/12/03 05:20:40;;;;;;;16.35;13.02;;;7.90;91.10;;;;;;5125175;28;20485;-55
2022/12/03 05:22:07;;;;;;;17.52;12.60;;;7.90;91.10;;;;;;5110063;28;20088;-55
2022/12/03 05:24:32;;;;;;;17.92;12.65;;;7.90;91.10;;;;;;5107115;28;20411;-55
2022/12/03 05:26:58;;;;;;;16.60;12.85;;;7.90;91.10;;;;;;5107097;28;20027;-55
2022/12/03 05:29:23;;;;;;;17.67;13.15;;;7.90;91.00;;;;;;5125655;28;20373;-55
2022/12/03 05:31:49;;;;;;;16.35;12.93;;;7.90;91.00;;;;;;5125782;28;20039;-55
2022/12/03 05:34:14;;;;;;;16.67;12.63;;;7.90;91.00;;;;;;5107059;28;20020;-52
2022/12/03 05:36:40;;;;;;;19.45;13.18;;;7.90;91.00;;;;;;5106914;28;20074;-55
2022/12/03 05:39:05;;;;;;;18.80;12.13;;;7.90;91.10;;;;;;5125174;28;20020;-55
2022/12/03 05:44:15;;;;;;;17.40;13.30;;;7.80;91.10;;;;;;5109617;28;20052;-55
2022/12/03 05:46:40;;;;;;;15.77;12.88;;;7.90;91.10;;;;;;5125078;28;20048;-55
2022/12/03 05:49:06;;;;;;;16.20;12.75;;;7.80;91.10;;;;;;5125051;28;20050;-55
2022/12/03 05:51:31;;;;;;;14.73;12.43;;;7.80;91.10;;;;;;5106664;28;20035;-55
2022/12/03 05:53:57;;;;;;;17.08;12.45;;;7.80;91.10;;;;;;5125013;28;20050;-54
2022/12/03 05:56:22;;;;;;;15.40;12.40;;;7.80;91.10;;;;;;5106541;28;20028;-55
2022/12/03 05:58:48;;;;;;;16.50;12.23;;;7.80;91.10;;;;;;5106562;28;20038;-55
2022/12/03 06:01:13;;;;;;;16.42;12.13;;;7.80;91.10;;;;;;5106489;28;20042;-55
2022/12/03 06:03:39;;;;;;;20.00;13.07;;;7.80;91.10;;;;;;5106705;28;20020;-54
2022/12/03 06:06:04;;;;;;;17.80;12.43;;;7.80;91.10;;;;;;5106483;28;20031;-55
2022/12/03 06:08:30;;;;;;;14.93;11.82;;;7.90;91.10;;;;;;5124651;28;20023;-55
2022/12/03 06:10:55;;;;;;;17.17;12.32;;;7.80;91.10;;;;;;5106353;28;20065;-54
2022/12/03 06:13:21;;;;;;;15.80;12.85;;;7.80;91.10;;;;;;5124791;28;20094;-54
2022/12/03 06:15:46;;;;;;;18.58;13.40;;;7.80;91.10;;;;;;5106504;28;20035;-54
2022/12/03 06:18:12;;;;;;;17.40;13.73;;;7.80;91.10;;;;;;5106497;28;20038;-55
2022/12/03 06:20:38;;;;;;;16.25;13.40;;;7.80;91.10;;;;;;5124848;28;20043;-55
2022/12/03 06:23:03;;;;;;;17.73;13.40;;;7.80;91.20;;;;;;5124754;28;20028;-55
2022/12/03 06:25:29;;;;;;;17.50;13.77;;;7.80;91.20;;;;;;5126645;28;20415;-55
2022/12/03 06:27:54;;;;;;;17.23;13.35;;;7.80;91.20;;;;;;5110195;28;20030;-54
2022/12/03 06:30:20;;;;;;;19.00;13.10;;;7.80;91.20;;;;;;5128473;28;20019;-54
2022/12/03 06:32:45;;;;;;;15.25;12.40;;;7.80;91.20;;;;;;5093072;28;20147;-55
2022/12/03 06:35:11;;;;;;;17.77;13.27;;;7.80;91.20;;;;;;5093017;28;20047;-55
2022/12/03 06:37:37;;;;;;;16.40;12.93;;;7.80;91.20;;;;;;5092935;28;20032;-55
2022/12/03 06:40:02;;;;;;;15.85;13.38;;;7.80;91.20;;;;;;5128057;28;20077;-55
2022/12/03 06:42:28;;;;;;;15.48;13.40;;;7.70;91.20;;;;;;5128090;28;20039;-54
2022/12/03 06:44:54;;;;;;;15.20;11.98;;;7.70;91.20;;;;;;5109611;28;20039;-55
2022/12/03 06:47:19;;;;;;;16.65;12.15;;;7.70;91.30;;;;;;5109850;28;20028;-55
2022/12/03 06:49:45;;;;;;;16.52;12.55;;;7.70;91.20;;;;;;5109591;28;20034;-54
2022/12/03 06:52:10;;;;;;;16.73;12.63;;;7.70;91.20;;;;;;5128186;28;20039;-55
2022/12/03 06:54:36;;;;;;;15.38;12.15;;;7.70;91.30;;;;;;5127753;28;20128;-55
2022/12/03 06:57:01;;;;;;;13.15;11.60;;;7.70;91.60;;;;;;5109617;28;20032;-55
2022/12/03 06:59:27;;;;;;;15.93;11.88;;;7.70;91.30;;;;;;5127935;28;20035;-54
2022/12/03 07:01:52;;;;;;;15.85;12.32;;;7.70;91.30;;;;;;5109490;28;20028;-55
2022/12/03 07:04:18;;;;;;;14.77;11.73;;;7.70;91.30;;;;;;5109396;28;20023;-55
2022/12/03 07:06:43;;;;;;;14.73;12.02;;;7.70;91.40;;;;;;5109387;28;20047;-55
2022/12/03 07:09:09;;;;;;;15.25;12.52;;;7.70;91.40;;;;;;5092499;28;20143;-55
2022/12/03 07:11:40;;;;;;;18.45;13.18;;;7.70;91.30;;;;;;5109419;28;20039;-54
2022/12/03 07:14:06;;;;;;;17.40;11.98;;;7.70;91.30;;;;;;5127603;28;20031;-55
2022/12/03 07:16:36;;;;;;;15.25;12.25;;;7.70;91.30;;;;;;5109239;28;20130;-55
2022/12/03 07:19:02;;;;;;;14.55;11.90;;;7.70;91.30;;;;;;5109177;28;20024;-55
2022/12/03 07:21:27;;;;;;;14.75;12.48;;;7.70;91.20;;;;;;5127565;28;20065;-55
2022/12/03 07:23:53;;;;;;;14.90;11.45;;;7.60;91.20;;;;;;5108972;28;20059;-55
2022/12/03 07:26:18;;;;;;;16.63;12.68;;;7.60;91.30;;;;;;5127554;28;20110;-55
2022/12/03 07:28:45;;;;;;;15.32;12.18;;;7.60;91.30;;;;;;5109056;28;20041;-55
2022/12/03 07:31:11;;;;;;;14.82;11.65;;;7.60;91.30;;;;;;5127163;28;20027;-55
2022/12/03 07:33:36;;;;;;;13.88;11.82;;;7.60;91.60;;;;;;5108980;28;20024;-55
2022/12/03 07:36:02;;;;;;;15.85;11.82;;;7.60;91.40;;;;;;5107935;28;20042;-55
2022/12/03 07:38:27;;;;;;;14.48;10.90;;;7.60;91.30;;;;;;5108694;28;20396;-54
2022/12/03 07:40:53;;;;;;;14.77;11.75;;;7.60;91.40;;;;;;5126959;28;20059;-55
2022/12/03 07:43:18;;;;;;;14.57;11.57;;;7.60;91.30;;;;;;5126850;28;20032;-55
2022/12/03 07:45:44;;;;;;;14.70;11.38;;;7.60;91.40;;;;;;5126890;28;20172;-55
2022/12/03 07:48:09;;;;;;;14.30;11.52;;;7.50;91.30;;;;;;5127127;28;20084;-55
2022/12/03 07:50:35;;;;;;;15.25;11.57;;;7.50;91.30;;;;;;5108544;28;20521;-55
2022/12/03 07:53:00;;;;;;;14.93;11.57;;;7.50;91.40;;;;;;5108380;28;20449;-55
2022/12/03 07:55:26;;;;;;;13.52;11.52;;;7.50;91.40;;;;;;5126725;28;20043;-55
2022/12/03 07:57:52;;;;;;;13.35;11.23;;;7.50;91.40;;;;;;5126894;28;20031;-55
2022/12/03 08:00:18;;;;;;;15.10;12.18;;;7.50;91.40;;;;;;5108251;28;20028;-55
2022/12/03 08:02:44;;;;;;;13.82;11.02;;;7.50;91.40;;;;;;5108574;28;20030;-55
2022/12/03 08:05:10;;;;;;;15.40;11.90;;;7.50;91.40;;;;;;5108226;28;20019;-55
2022/12/03 08:07:35;;;;;;;13.00;10.85;;;7.50;91.40;;;;;;5108242;28;20049;-55
2022/12/03 08:10:01;;;;;;;14.05;10.75;;;7.50;91.30;;;;;;5108105;28;20100;-54
2022/12/03 08:12:38;;;;;;;13.57;11.52;;;7.50;91.30;;;;;;5108212;28;20067;-55
2022/12/03 08:15:25;;;;;;;14.77;11.00;;;7.50;91.40;;;;;;5109557;28;20215;-55
2022/12/03 08:17:57;;;;;;;13.02;10.73;;;7.50;91.30;;;;;;5108025;28;20088;-55
2022/12/03 08:20:24;;;;;;;14.43;11.05;;;7.50;91.40;;;;;;5108479;28;20032;-55
2022/12/03 08:22:50;;;;;;;13.63;11.48;;;7.50;91.40;;;;;;5107832;28;20071;-54
2022/12/03 08:25:19;;;;;;;15.20;11.00;;;7.50;91.40;;;;;;5107831;28;20198;-55
2022/12/03 08:27:45;;;;;;;14.35;11.13;;;7.50;91.40;;;;;;5104786;28;20042;-54
2022/12/03 08:30:12;;;;;;;12.43;10.70;;;7.50;91.40;;;;;;5106112;28;20020;-54
2022/12/03 08:32:37;;;;;;;14.18;11.45;;;7.50;91.40;;;;;;5100342;28;20531;-55
2022/12/03 08:35:28;;;;;;;13.30;10.98;;;7.50;91.40;;;;;;5123095;28;20105;-54
2022/12/03 08:38:21;;;;;;;14.77;11.32;;;7.50;91.40;;;;;;5104512;28;20071;-53
2022/12/03 08:40:49;;;;;;;14.43;10.40;;;7.50;91.40;;;;;;5116120;28;20109;-55
2022/12/03 08:43:18;;;;;;;14.75;11.55;;;7.50;91.40;;;;;;5104851;28;20522;-55
2022/12/03 08:45:44;;;;;;;13.13;10.73;;;7.50;91.40;;;;;;5124636;27;20560;-55
2022/12/03 08:48:22;;;;;;;14.05;10.85;;;7.50;91.30;;;;;;5124938;28;20084;-55
2022/12/03 08:50:47;;;;;;;14.25;10.60;;;7.50;91.30;;;;;;5111851;28;20412;-55
2022/12/03 08:53:13;;;;;;;13.75;11.07;;;7.50;91.30;;;;;;5106538;28;20106;-55
2022/12/03 08:55:50;;;;;;;15.98;10.77;;;7.50;91.30;;;;;;5124668;28;20032;-55
2022/12/03 08:58:37;;;;;;;15.50;10.32;;;7.50;91.30;;;;;;5092024;28;20035;-53
2022/12/03 09:01:09;;;;;;;13.07;10.07;;;7.50;91.30;;;;;;5113721;28;20032;-55
2022/12/03 09:03:34;;;;;;;15.30;10.82;;;7.50;91.30;;;;;;5121270;28;20066;-54
2022/12/03 09:06:00;;;;;;;13.80;10.93;;;7.50;91.60;;;;;;5102822;28;20039;-54
2022/12/03 09:08:25;;;;;;;14.95;10.88;;;7.50;91.30;;;;;;5103725;28;20050;-55
2022/12/03 09:10:51;;;;;;;16.52;11.00;;;7.50;91.30;;;;;;5101622;28;20138;-54
2022/12/03 09:13:17;;;;;;;18.80;11.02;;;7.60;91.20;;;;;;5106885;28;20027;-55
2022/12/03 09:15:42;;;;;;;30.80;11.50;;;7.50;91.20;;;;;;5087512;28;20043;-55
2022/12/03 09:18:08;;;;;;;26.17;11.70;;;7.50;91.30;;;;;;5121079;28;20020;-55
2022/12/03 09:20:33;;;;;;;28.83;12.00;;;7.60;91.30;;;;;;5085793;28;20133;-55
2022/12/03 09:22:59;;;;;;;55.08;13.85;;;7.50;91.30;;;;;;5102390;28;20047;-57
2022/12/03 09:25:24;;;;;;;40.97;14.10;;;7.50;91.40;;;;;;5086598;28;20027;-57
2022/12/03 09:27:50;;;;;;;56.33;14.38;;;7.60;91.50;;;;;;5104867;28;20038;-57
2022/12/03 09:30:15;;;;;;;64.18;14.68;;;7.60;91.50;;;;;;5103191;28;20015;-57
2022/12/03 09:32:41;;;;;;;244.63;29.40;;;7.60;91.60;;;;;;5103420;28;20055;-57
2022/12/03 09:35:07;;;;;;;93.30;19.13;;;7.60;91.80;;;;;;5086962;28;20063;-57
2022/12/03 09:37:32;;;;;;;77.43;17.02;;;7.60;91.70;;;;;;5121911;28;20036;-57
2022/12/03 09:39:58;;;;;;;61.28;15.25;;;7.60;92.00;;;;;;5101602;28;20123;-57
2022/12/03 09:42:24;;;;;;;74.25;15.85;;;7.70;91.80;;;;;;5118090;28;20125;-57
2022/12/03 09:44:49;;;;;;;116.75;20.23;;;7.60;91.80;;;;;;5093207;28;20050;-57
2022/12/03 09:47:15;;;;;;;84.78;18.15;;;7.70;91.80;;;;;;5089847;28;20035;-57
2022/12/03 09:49:41;;;;;;;128.57;22.25;;;7.70;91.90;;;;;;5087443;28;20106;-57
2022/12/03 09:52:06;;;;;;;150.20;23.90;;;7.70;92.00;;;;;;5120163;28;20080;-57
2022/12/03 09:54:32;;;;;;;118.38;21.13;;;7.70;92.00;;;;;;5097990;28;20042;-57
2022/12/03 09:56:59;;;;;;;151.43;24.02;;;7.70;92.10;;;;;;5101210;28;20167;-57
2022/12/03 09:59:26;;;;;;;128.50;22.08;;;7.80;92.10;;;;;;5097549;28;20388;-57
2022/12/03 10:01:54;;;;;;;211.35;27.23;;;7.70;92.00;;;;;;5089224;28;20040;-57
2022/12/03 10:04:20;;;;;;;196.80;27.08;;;7.80;92.10;;;;;;5105672;28;20016;-57
2022/12/03 10:06:46;;;;;;;170.65;23.52;;;7.80;92.20;;;;;;5108537;28;20038;-57
2022/12/03 10:09:13;;;;;;;187.25;26.50;;;7.80;92.00;;;;;;5108142;28;20081;-57
2022/12/03 10:11:38;;;;;;;218.73;31.33;;;7.80;92.10;;;;;;5091164;28;20453;-57
2022/12/03 10:14:04;;;;;;;228.80;28.75;;;7.90;92.10;;;;;;5074447;28;20081;-57
2022/12/03 10:16:29;;;;;;;287.67;34.63;;;7.90;92.30;;;;;;5090318;28;20028;-57
2022/12/03 10:18:57;;;;;;;321.48;43.33;;;7.90;92.20;;;;;;5090648;28;20014;-57
2022/12/03 10:21:35;;;;;;;505.60;57.38;;;7.90;92.30;;;;;;5091040;28;20031;-57
2022/12/03 10:24:16;;;;;;;579.95;68.80;;;7.90;92.40;;;;;;5092406;28;20023;-57
2022/12/03 10:26:42;;;;;;;568.08;67.15;;;8.00;92.50;;;;;;5109459;28;20042;-57
2022/12/03 10:29:16;;;;;;;469.95;56.60;;;8.00;92.50;;;;;;5127600;28;20020;-57
2022/12/03 10:31:42;;;;;;;458.55;54.22;;;8.00;92.40;;;;;;5103263;28;20039;-57
2022/12/03 10:34:10;;;;;;;591.80;69.90;;;8.00;92.30;;;;;;5087353;28;20039;-57
2022/12/03 10:36:36;;;;;;;527.65;65.20;;;8.00;92.30;;;;;;5107861;28;20047;-57
2022/12/03 10:39:08;;;;;;;508.30;60.88;;;8.00;92.20;;;;;;5073644;28;20471;-57
2022/12/03 10:41:33;;;;;;;495.58;57.88;;;8.10;92.10;;;;;;5105824;28;20032;-59
2022/12/03 10:44:18;;;;;;;457.73;50.88;;;8.10;92.00;;;;;;5107568;28;20099;-57
2022/12/03 10:46:44;;;;;;;472.30;53.95;;;8.00;91.80;;;;;;5123877;28;20047;-57
2022/12/03 10:49:17;;;;;;;335.83;44.42;;;8.00;91.70;;;;;;5106472;28;20030;-57
2022/12/03 10:51:43;;;;;;;332.77;42.78;;;8.00;91.60;;;;;;5108053;28;20051;-57
2022/12/03 10:54:29;;;;;;;263.67;36.92;;;8.00;91.50;;;;;;5122484;28;20024;-57
2022/12/03 10:56:55;;;;;;;295.10;38.08;;;8.00;91.40;;;;;;5084787;28;20055;-56
2022/12/03 10:59:25;;;;;;;296.60;38.30;;;8.00;91.40;;;;;;5072328;28;20115;-57
2022/12/03 11:01:50;;;;;;;307.23;37.90;;;8.00;91.40;;;;;;5106638;28;20043;-57
2022/12/03 11:04:31;;;;;;;244.77;34.08;;;7.90;91.40;;;;;;5106475;28;20023;-57
2022/12/03 11:06:57;;;;;;;214.70;32.50;;;8.00;91.40;;;;;;5105411;28;20421;-55
2022/12/03 11:09:25;;;;;;;281.73;33.78;;;7.90;91.30;;;;;;5086881;28;20061;-57
2022/12/03 11:11:51;;;;;;;221.02;30.33;;;7.90;91.30;;;;;;5103662;28;20058;-57
2022/12/03 11:14:52;;;;;;;197.95;30.58;;;7.90;91.30;;;;;;5103633;28;20028;-56
2022/12/03 11:17:43;;;;;;;195.55;30.70;;;7.90;91.30;;;;;;5112694;28;20028;-57
2022/12/03 11:20:23;;;;;;;184.88;29.25;;;7.90;91.40;;;;;;5123443;28;20028;-57
2022/12/03 11:22:55;;;;;;;184.57;29.08;;;7.90;91.50;;;;;;5105783;28;20060;-57
2022/12/03 11:25:27;;;;;;;181.95;29.15;;;7.90;91.40;;;;;;5105622;28;20027;-57
2022/12/03 11:28:10;;;;;;;193.80;29.05;;;7.90;91.40;;;;;;5125457;28;20020;-57
2022/12/03 11:30:48;;;;;;;187.25;28.63;;;7.90;91.30;;;;;;5125271;28;20032;-57
2022/12/03 11:33:33;;;;;;;146.65;24.05;;;7.90;91.30;;;;;;5125220;28;20068;-57
2022/12/03 11:36:04;;;;;;;117.90;22.65;;;7.90;91.30;;;;;;5125122;28;20032;-57
2022/12/03 11:38:36;;;;;;;149.65;25.27;;;7.90;91.20;;;;;;5105701;28;20027;-57
2022/12/03 11:41:08;;;;;;;110.50;24.70;;;7.90;91.20;;;;;;5123637;28;20050;-57
2022/12/03 11:43:56;;;;;;;123.45;23.85;;;7.90;91.20;;;;;;5124599;28;20035;-57
2022/12/03 11:46:39;;;;;;;128.75;23.33;;;7.90;91.20;;;;;;5101456;28;20041;-57
2022/12/03 11:49:27;;;;;;;134.85;23.85;;;7.80;91.20;;;;;;5107578;28;20528;-56
2022/12/03 11:51:53;;;;;;;126.28;23.15;;;7.80;91.50;;;;;;5106390;28;20027;-56
2022/12/03 11:54:21;;;;;;;115.47;24.25;;;7.90;91.40;;;;;;5105368;28;20036;-57
2022/12/03 11:56:48;;;;;;;110.13;22.65;;;7.80;91.40;;;;;;5105137;28;20027;-57
2022/12/03 11:59:13;;;;;;;115.18;23.08;;;7.90;91.50;;;;;;5105173;28;20019;-57
2022/12/03 12:01:39;;;;;;;143.18;23.35;;;7.90;91.40;;;;;;5103682;28;20063;-57
2022/12/03 12:04:06;;;;;;;131.55;23.77;;;7.90;91.40;;;;;;5104079;28;20024;-57
2022/12/03 12:06:42;;;;;;;134.80;24.10;;;7.90;91.40;;;;;;5119070;28;20133;-57
2022/12/03 12:09:07;;;;;;;76.25;20.05;;;7.80;91.40;;;;;;5094802;28;20023;-57
2022/12/03 12:11:34;;;;;;;88.47;19.63;;;7.90;91.30;;;;;;5101227;28;20049;-57
2022/12/03 12:14:04;;;;;;;137.65;22.02;;;7.90;91.30;;;;;;5088762;28;20047;-57
2022/12/03 12:16:36;;;;;;;141.05;24.10;;;7.90;91.30;;;;;;5088670;28;20077;-57
2022/12/03 12:19:31;;;;;;;110.53;21.35;;;7.80;91.30;;;;;;5116826;28;20193;-57
2022/12/03 12:22:25;;;;;;;105.80;21.80;;;7.90;91.30;;;;;;5117000;28;20032;-57
2022/12/03 12:24:51;;;;;;;123.85;21.85;;;7.90;91.40;;;;;;5121352;28;20063;-56
2022/12/03 12:27:19;;;;;;;122.93;22.60;;;7.80;91.30;;;;;;5106476;28;20032;-56
2022/12/03 12:29:49;;;;;;;96.88;21.48;;;7.90;91.30;;;;;;5107097;28;20134;-57
2022/12/03 12:32:15;;;;;;;99.90;19.60;;;7.90;91.30;;;;;;5071341;28;20364;-57
2022/12/03 12:34:43;;;;;;;111.65;20.10;;;7.90;91.30;;;;;;5122968;28;20028;-56
2022/12/03 12:37:32;;;;;;;92.35;21.02;;;7.90;91.30;;;;;;5087323;28;20457;-55
2022/12/03 12:39:57;;;;;;;97.40;19.55;;;7.90;91.20;;;;;;5103447;28;20241;-55
2022/12/03 12:42:34;;;;;;;142.57;23.77;;;7.90;91.30;;;;;;5123256;28;20035;-54
2022/12/03 12:45:12;;;;;;;95.05;19.38;;;7.90;91.30;;;;;;5120417;28;20019;-54
2022/12/03 12:47:44;;;;;;;85.85;19.38;;;7.90;91.40;;;;;;5120014;28;20058;-55
2022/12/03 12:50:10;;;;;;;101.25;20.15;;;7.90;91.50;;;;;;5071956;28;20024;-54
2022/12/03 12:52:40;;;;;;;111.45;21.33;;;7.90;91.30;;;;;;5087209;28;20059;-55
2022/12/03 12:55:08;;;;;;;85.82;18.40;;;7.90;91.30;;;;;;5086460;28;20098;-54
2022/12/03 12:57:33;;;;;;;87.63;19.67;;;7.90;91.60;;;;;;5103737;28;20043;-55
2022/12/03 12:59:59;;;;;;;100.53;20.67;;;7.90;91.40;;;;;;5100996;28;20205;-54
2022/12/03 13:02:36;;;;;;;116.38;20.10;;;7.90;91.40;;;;;;5106386;28;20061;-54
2022/12/03 13:05:02;;;;;;;136.52;21.30;;;7.90;91.40;;;;;;5110536;28;20020;-55